Time;durP1;ratioP1;P1;durP2;ratioP2;P2;SDS_P1;SDS_P2;PMS_P1;PMS_P2;Temp;Humidity;BMP_temperature;BMP_pressure;BME280_temperature;BME280_humidity;BME280_pressure;Samples;Min_cycle;Max_cycle;Signal;HPM_P1;HPM_P2
2021/08/14 00:02:24;;;;;;;1.15;0.50;;;16.70;74.90;;;;;;4998704;28;20136;-82
2021/08/14 00:04:50;;;;;;;0.70;0.50;;;16.70;75.00;;;;;;4998763;28;20034;-82
2021/08/14 00:07:16;;;;;;;0.70;0.40;;;16.70;75.10;;;;;;5033121;28;20034;-81
2021/08/14 00:09:42;;;;;;;1.75;0.55;;;16.70;75.20;;;;;;5015241;28;20041;-82
2021/08/14 00:12:08;;;;;;;1.00;0.43;;;16.60;75.30;;;;;;5032669;28;20099;-82
2021/08/14 00:14:34;;;;;;;1.25;0.60;;;16.60;75.40;;;;;;4998503;28;20045;-82
2021/08/14 00:17:00;;;;;;;1.00;0.55;;;16.50;75.50;;;;;;5014736;28;20076;-82
2021/08/14 00:19:26;;;;;;;0.43;0.40;;;16.50;75.60;;;;;;4982040;28;20049;-82
2021/08/14 00:21:53;;;;;;;1.42;0.68;;;16.50;75.80;;;;;;5015111;28;20034;-82
2021/08/14 00:24:18;;;;;;;1.00;0.60;;;16.40;76.00;;;;;;4988365;28;20095;-82
2021/08/14 00:26:44;;;;;;;1.23;0.60;;;16.40;76.10;;;;;;4998230;28;20057;-82
2021/08/14 00:29:10;;;;;;;0.80;0.50;;;16.30;76.10;;;;;;4997031;28;20052;-81
2021/08/14 00:31:36;;;;;;;0.90;0.52;;;16.30;76.20;;;;;;5014562;28;20176;-82
2021/08/14 00:34:02;;;;;;;0.88;0.50;;;16.20;76.20;;;;;;4997921;28;20076;-83
2021/08/14 00:36:27;;;;;;;0.95;0.47;;;16.20;76.30;;;;;;5014585;28;20045;-83
2021/08/14 00:38:53;;;;;;;1.85;0.60;;;16.20;76.40;;;;;;5032788;28;20048;-82
2021/08/14 00:41:19;;;;;;;0.95;0.50;;;16.10;76.50;;;;;;5032147;28;20045;-82
2021/08/14 00:43:45;;;;;;;0.98;0.50;;;16.20;76.70;;;;;;4997963;28;20546;-82
2021/08/14 00:46:13;;;;;;;0.75;0.50;;;16.20;77.40;;;;;;5032245;28;20037;-82
2021/08/14 00:48:39;;;;;;;0.75;0.50;;;16.20;76.80;;;;;;4998434;28;20033;-82
2021/08/14 00:51:07;;;;;;;1.50;0.70;;;16.20;76.80;;;;;;5032409;28;20061;-82
2021/08/14 00:53:34;;;;;;;1.23;0.80;;;16.10;76.90;;;;;;5032395;28;20072;-82
2021/08/14 00:56:00;;;;;;;0.98;0.47;;;16.10;77.00;;;;;;4997850;28;20041;-82
2021/08/14 00:58:26;;;;;;;1.00;0.50;;;16.20;76.90;;;;;;4998396;28;20079;-82
2021/08/14 01:00:52;;;;;;;0.45;0.45;;;16.20;76.80;;;;;;5031899;28;20056;-82
2021/08/14 01:03:18;;;;;;;1.35;0.60;;;16.20;76.80;;;;;;4979094;28;20046;-82
2021/08/14 01:05:46;;;;;;;1.48;0.65;;;16.20;76.80;;;;;;4994283;28;20465;-82
2021/08/14 01:08:13;;;;;;;1.85;0.98;;;16.20;76.80;;;;;;5012528;28;20065;-82
2021/08/14 01:10:39;;;;;;;2.13;0.80;;;16.30;76.80;;;;;;4994061;28;20042;-81
2021/08/14 01:13:05;;;;;;;2.15;0.90;;;16.40;76.80;;;;;;4978184;28;20046;-82
2021/08/14 01:15:31;;;;;;;2.17;0.70;;;16.30;76.60;;;;;;4994307;28;20494;-82
2021/08/14 01:17:57;;;;;;;0.77;0.60;;;16.40;76.60;;;;;;4978014;28;20413;-82
2021/08/14 01:20:23;;;;;;;1.65;0.80;;;16.40;76.60;;;;;;4977932;28;20065;-82
2021/08/14 01:22:49;;;;;;;2.13;0.80;;;16.40;76.60;;;;;;4994492;28;20089;-81
2021/08/14 01:25:17;;;;;;;1.23;0.60;;;16.40;76.60;;;;;;4994586;28;20179;-82
2021/08/14 01:27:43;;;;;;;1.00;0.50;;;16.40;76.70;;;;;;4978034;28;20034;-81
2021/08/14 01:30:11;;;;;;;0.40;0.40;;;16.40;76.70;;;;;;4994520;28;20038;-82
2021/08/14 01:32:37;;;;;;;0.93;0.50;;;16.30;76.80;;;;;;4961960;28;20050;-82
2021/08/14 01:35:05;;;;;;;0.70;0.57;;;16.30;76.80;;;;;;5008168;28;20038;-82
2021/08/14 01:37:31;;;;;;;0.73;0.57;;;16.30;77.00;;;;;;5013854;28;20072;-82
2021/08/14 01:39:57;;;;;;;0.85;0.65;;;16.30;77.10;;;;;;4980013;28;20038;-81
2021/08/14 01:42:23;;;;;;;0.77;0.63;;;16.20;77.20;;;;;;4994178;28;20050;-82
2021/08/14 01:44:50;;;;;;;1.33;0.50;;;16.20;77.40;;;;;;4977889;28;20054;-82
2021/08/14 01:47:17;;;;;;;1.35;0.80;;;16.20;77.40;;;;;;5011878;28;20080;-82
2021/08/14 01:49:42;;;;;;;0.60;0.60;;;16.20;77.40;;;;;;4961886;28;20033;-82
2021/08/14 01:52:12;;;;;;;0.50;0.50;;;16.20;77.40;;;;;;4977870;28;20442;-82
2021/08/14 01:54:39;;;;;;;1.27;0.68;;;16.30;77.50;;;;;;5030541;28;20065;-82
2021/08/14 01:57:06;;;;;;;2.20;0.70;;;16.20;77.50;;;;;;5013572;28;20481;-82
2021/08/14 01:59:34;;;;;;;1.55;0.70;;;16.20;77.50;;;;;;5010291;28;20056;-82
2021/08/14 02:02:00;;;;;;;1.42;0.70;;;16.30;77.50;;;;;;4961310;28;20042;-82
2021/08/14 02:04:26;;;;;;;1.63;0.75;;;16.30;77.60;;;;;;5011633;28;20053;-82
2021/08/14 02:06:51;;;;;;;0.30;0.30;;;16.20;77.60;;;;;;5011600;28;20038;-82
2021/08/14 02:09:17;;;;;;;0.77;0.50;;;16.20;77.70;;;;;;5012380;28;20377;-82
2021/08/14 02:11:43;;;;;;;0.60;0.50;;;16.20;77.80;;;;;;5031384;28;20033;-82
2021/08/14 02:14:09;;;;;;;1.00;0.65;;;16.20;77.90;;;;;;4997047;28;20097;-82
2021/08/14 02:16:35;;;;;;;0.98;0.55;;;16.20;77.90;;;;;;4997231;28;20044;-82
2021/08/14 02:19:02;;;;;;;0.95;0.70;;;16.10;78.10;;;;;;4980937;28;20492;-82
2021/08/14 02:21:35;;;;;;;0.70;0.50;;;16.00;78.10;;;;;;5007063;28;20069;-82
2021/08/14 02:24:01;;;;;;;0.98;0.60;;;16.00;78.40;;;;;;5017111;28;20041;-82
2021/08/14 02:26:27;;;;;;;0.90;0.50;;;16.00;78.50;;;;;;5000162;28;20079;-82
2021/08/14 02:28:53;;;;;;;1.05;0.50;;;15.90;78.50;;;;;;4999959;28;20033;-82
2021/08/14 02:31:19;;;;;;;3.38;0.82;;;15.90;78.60;;;;;;5000322;28;20488;-82
2021/08/14 02:33:46;;;;;;;1.42;0.70;;;15.90;78.60;;;;;;5016458;28;20029;-82
2021/08/14 02:36:13;;;;;;;0.75;0.60;;;15.90;78.70;;;;;;4983892;28;20041;-82
2021/08/14 02:38:39;;;;;;;2.55;0.80;;;15.90;78.70;;;;;;4999941;28;20036;-82
2021/08/14 02:41:07;;;;;;;0.60;0.60;;;15.90;78.70;;;;;;5015994;28;20058;-82
2021/08/14 02:43:33;;;;;;;0.82;0.60;;;15.90;78.70;;;;;;4980504;28;20042;-82
2021/08/14 02:46:00;;;;;;;2.00;0.90;;;15.90;78.70;;;;;;4999045;28;20087;-82
2021/08/14 02:48:27;;;;;;;1.83;0.80;;;15.90;78.70;;;;;;4985316;28;20076;-82
2021/08/14 02:50:53;;;;;;;1.52;0.60;;;15.90;78.80;;;;;;4997012;28;20046;-82
2021/08/14 02:53:19;;;;;;;0.98;0.70;;;15.90;78.80;;;;;;4964294;28;20049;-82
2021/08/14 02:55:44;;;;;;;1.45;0.80;;;15.90;78.90;;;;;;4993042;28;20112;-82
2021/08/14 02:58:10;;;;;;;2.30;0.88;;;15.90;78.90;;;;;;5015856;28;20053;-81
2021/08/14 03:00:36;;;;;;;1.92;0.90;;;15.90;78.90;;;;;;4998367;28;20057;-82
2021/08/14 03:03:02;;;;;;;1.13;0.80;;;15.90;78.90;;;;;;4980280;28;20118;-82
2021/08/14 03:05:28;;;;;;;1.67;0.80;;;15.90;78.90;;;;;;4980530;28;20064;-81
2021/08/14 03:07:53;;;;;;;2.10;0.90;;;15.90;78.90;;;;;;5005842;28;20042;-82
2021/08/14 03:10:19;;;;;;;1.20;0.70;;;15.90;78.90;;;;;;5016003;28;20044;-82
2021/08/14 03:12:45;;;;;;;1.75;0.77;;;15.90;78.90;;;;;;4999271;28;20527;-82
2021/08/14 03:15:11;;;;;;;1.02;0.60;;;15.90;78.90;;;;;;4983039;28;20481;-82
2021/08/14 03:17:37;;;;;;;0.90;0.60;;;15.90;78.90;;;;;;5015973;28;20136;-82
2021/08/14 03:20:05;;;;;;;0.45;0.45;;;15.90;79.00;;;;;;4984472;28;20133;-82
2021/08/14 03:22:31;;;;;;;1.50;0.60;;;15.90;79.10;;;;;;4996593;28;20430;-82
2021/08/14 03:24:56;;;;;;;0.88;0.60;;;15.90;79.10;;;;;;4979850;28;20034;-82
2021/08/14 03:27:22;;;;;;;1.15;0.75;;;15.80;79.20;;;;;;4996535;28;20141;-82
2021/08/14 03:29:48;;;;;;;0.52;0.50;;;15.80;79.30;;;;;;4995866;28;20525;-83
2021/08/14 03:32:14;;;;;;;1.40;0.68;;;15.70;79.30;;;;;;5013218;28;20057;-82
2021/08/14 03:34:40;;;;;;;0.40;0.40;;;15.70;79.50;;;;;;4996232;28;20030;-82
2021/08/14 03:37:06;;;;;;;0.73;0.52;;;15.70;79.60;;;;;;4995948;28;20042;-82
2021/08/14 03:39:33;;;;;;;0.93;0.47;;;15.60;79.70;;;;;;4979406;28;20493;-82
2021/08/14 03:41:59;;;;;;;1.15;0.50;;;15.60;79.90;;;;;;4995874;28;20037;-82
2021/08/14 03:44:25;;;;;;;1.05;0.73;;;15.60;79.90;;;;;;5015022;28;20042;-82
2021/08/14 03:46:51;;;;;;;0.85;0.32;;;15.60;80.00;;;;;;4979309;28;20046;-82
2021/08/14 03:49:16;;;;;;;0.47;0.47;;;15.50;80.00;;;;;;4995468;28;20038;-81
2021/08/14 03:51:42;;;;;;;0.50;0.45;;;15.50;80.00;;;;;;4995644;28;20042;-82
2021/08/14 03:54:08;;;;;;;1.67;0.57;;;15.50;80.00;;;;;;4966418;28;20041;-82
2021/08/14 03:56:34;;;;;;;1.50;0.57;;;15.60;80.10;;;;;;4998553;28;20077;-82
2021/08/14 03:58:59;;;;;;;0.60;0.57;;;15.50;80.10;;;;;;5005083;28;20084;-82
2021/08/14 04:01:25;;;;;;;0.57;0.50;;;15.50;80.20;;;;;;4995633;28;20038;-82
2021/08/14 04:03:51;;;;;;;1.65;0.63;;;15.40;80.20;;;;;;4995422;28;20046;-82
2021/08/14 04:06:17;;;;;;;0.60;0.60;;;15.50;80.30;;;;;;4995592;28;20065;-82
2021/08/14 04:08:42;;;;;;;1.58;0.90;;;15.40;80.40;;;;;;4995878;28;20037;-82
2021/08/14 04:11:08;;;;;;;1.23;0.70;;;15.40;80.50;;;;;;4979078;28;20057;-82
2021/08/14 04:13:35;;;;;;;0.52;0.50;;;15.40;80.40;;;;;;4997561;28;20071;-82
2021/08/14 04:16:01;;;;;;;0.95;0.80;;;15.40;80.40;;;;;;5015223;28;20041;-82
2021/08/14 04:18:27;;;;;;;1.02;0.63;;;15.40;80.30;;;;;;4997512;28;20484;-82
2021/08/14 04:20:52;;;;;;;2.40;0.90;;;15.40;80.40;;;;;;5003786;28;20041;-82
2021/08/14 04:23:18;;;;;;;1.40;0.50;;;15.40;80.40;;;;;;4998820;28;20042;-82
2021/08/14 04:25:44;;;;;;;0.70;0.50;;;15.40;81.00;;;;;;4981046;28;20505;-82
2021/08/14 04:28:09;;;;;;;0.70;0.60;;;15.40;80.40;;;;;;5012894;28;20490;-82
2021/08/14 04:30:35;;;;;;;0.57;0.52;;;15.40;80.40;;;;;;4978693;28;20068;-82
2021/08/14 04:33:02;;;;;;;0.88;0.75;;;15.30;80.40;;;;;;5012800;28;20554;-82
2021/08/14 04:35:27;;;;;;;1.23;0.70;;;15.40;80.50;;;;;;4978686;28;20042;-82
2021/08/14 04:37:53;;;;;;;1.15;0.60;;;15.40;80.50;;;;;;4994953;28;20053;-82
2021/08/14 04:40:19;;;;;;;2.05;0.70;;;15.40;80.50;;;;;;5013005;28;20041;-82
2021/08/14 04:42:45;;;;;;;0.60;0.60;;;15.40;80.50;;;;;;4994877;28;20052;-82
2021/08/14 04:45:12;;;;;;;0.90;0.70;;;15.30;80.50;;;;;;4977853;28;20045;-82
2021/08/14 04:47:37;;;;;;;1.30;0.90;;;15.30;81.10;;;;;;4994879;28;20034;-82
2021/08/14 04:50:05;;;;;;;0.82;0.70;;;15.40;80.60;;;;;;5012736;28;20088;-82
2021/08/14 04:52:31;;;;;;;0.57;0.55;;;15.30;80.60;;;;;;5032049;28;20053;-82
2021/08/14 04:54:57;;;;;;;1.25;0.68;;;15.30;80.60;;;;;;4998250;28;20152;-82
2021/08/14 04:57:23;;;;;;;1.83;1.10;;;15.30;80.70;;;;;;5014181;28;20128;-82
2021/08/14 04:59:50;;;;;;;2.40;1.10;;;15.30;80.70;;;;;;4998776;28;20137;-82
2021/08/14 05:02:16;;;;;;;2.25;0.90;;;15.30;80.70;;;;;;4981896;28;20042;-82
2021/08/14 05:04:42;;;;;;;1.52;1.00;;;15.30;80.70;;;;;;4995829;28;20045;-82
2021/08/14 05:07:07;;;;;;;1.45;0.90;;;15.30;80.70;;;;;;5012206;28;20034;-82
2021/08/14 05:09:37;;;;;;;1.40;0.93;;;15.40;80.70;;;;;;4995422;28;20030;-82
2021/08/14 05:12:05;;;;;;;1.20;0.73;;;15.30;80.70;;;;;;4978466;28;20033;-82
2021/08/14 05:14:30;;;;;;;1.35;0.93;;;15.40;80.70;;;;;;4995205;28;20276;-81
2021/08/14 05:16:57;;;;;;;1.20;0.75;;;15.40;80.70;;;;;;4962355;28;20057;-82
2021/08/14 05:19:23;;;;;;;0.70;0.70;;;15.30;80.70;;;;;;4994745;28;20026;-82
2021/08/14 05:21:48;;;;;;;0.95;0.70;;;15.40;80.80;;;;;;5012620;28;20125;-82
2021/08/14 05:24:14;;;;;;;2.67;0.85;;;15.40;80.70;;;;;;4994491;28;20038;-82
2021/08/14 05:26:42;;;;;;;2.10;1.08;;;15.40;80.70;;;;;;5012474;28;20034;-82
2021/08/14 05:29:08;;;;;;;1.40;0.90;;;15.40;81.40;;;;;;4993213;28;20038;-82
2021/08/14 05:31:34;;;;;;;0.98;0.80;;;15.40;80.70;;;;;;4997444;28;20033;-82
2021/08/14 05:34:02;;;;;;;1.15;0.80;;;15.40;80.70;;;;;;4997557;28;20505;-81
2021/08/14 05:36:29;;;;;;;0.90;0.80;;;15.40;80.60;;;;;;4997805;28;20542;-82
2021/08/14 05:38:55;;;;;;;3.40;1.08;;;15.50;80.60;;;;;;4997526;28;20045;-82
2021/08/14 05:41:21;;;;;;;2.67;1.25;;;15.50;80.60;;;;;;4965295;28;20049;-82
2021/08/14 05:43:46;;;;;;;1.17;0.88;;;15.50;80.60;;;;;;4997269;28;20052;-82
2021/08/14 05:46:12;;;;;;;1.98;1.10;;;15.50;80.60;;;;;;5031426;28;20476;-81
2021/08/14 05:48:38;;;;;;;1.38;1.08;;;15.60;80.60;;;;;;5031624;28;20075;-82
2021/08/14 05:51:04;;;;;;;2.03;0.98;;;15.60;80.60;;;;;;4981411;28;20034;-82
2021/08/14 05:53:30;;;;;;;1.23;0.90;;;15.50;80.50;;;;;;4981181;28;20120;-82
2021/08/14 05:55:55;;;;;;;1.25;0.90;;;15.50;80.50;;;;;;4981644;28;20176;-82
2021/08/14 05:58:21;;;;;;;2.03;0.95;;;15.60;80.50;;;;;;4997845;28;20722;-82
2021/08/14 06:00:47;;;;;;;1.40;0.90;;;15.60;80.50;;;;;;4981368;28;20501;-82
2021/08/14 06:03:13;;;;;;;0.98;0.70;;;15.70;80.50;;;;;;5005627;28;20073;-82
2021/08/14 06:05:39;;;;;;;1.48;0.75;;;15.70;80.40;;;;;;5017102;28;20159;-81
2021/08/14 06:08:05;;;;;;;1.95;1.05;;;15.70;80.40;;;;;;5000509;28;20045;-81
2021/08/14 06:10:31;;;;;;;0.98;0.68;;;15.80;80.40;;;;;;4984300;28;20477;-82
2021/08/14 06:12:56;;;;;;;2.15;1.02;;;15.80;80.50;;;;;;4967021;28;20152;-81
2021/08/14 06:15:22;;;;;;;1.15;0.82;;;15.80;80.40;;;;;;4981410;28;20054;-81
2021/08/14 06:17:48;;;;;;;2.30;1.10;;;15.80;80.40;;;;;;4980873;28;20489;-81
2021/08/14 06:20:14;;;;;;;1.65;0.80;;;15.90;80.40;;;;;;4997036;28;20050;-81
2021/08/14 06:22:42;;;;;;;0.73;0.65;;;15.90;80.40;;;;;;5000164;28;20052;-81
2021/08/14 06:25:10;;;;;;;2.50;1.20;;;16.00;80.40;;;;;;5016629;28;20497;-82
2021/08/14 06:27:36;;;;;;;3.20;1.30;;;16.00;80.30;;;;;;5016761;28;20099;-81
2021/08/14 06:30:04;;;;;;;2.70;1.00;;;16.00;80.30;;;;;;5000261;28;20091;-82
2021/08/14 06:32:29;;;;;;;1.45;0.98;;;16.10;80.30;;;;;;5016563;28;20037;-81
2021/08/14 06:34:55;;;;;;;1.55;0.80;;;16.10;80.20;;;;;;4980803;28;20042;-82
2021/08/14 06:37:21;;;;;;;1.63;0.80;;;16.10;80.20;;;;;;4981081;28;20042;-82
2021/08/14 06:39:46;;;;;;;1.33;0.88;;;16.10;80.20;;;;;;4996819;28;20072;-82
2021/08/14 06:42:12;;;;;;;1.02;0.80;;;16.20;80.30;;;;;;4997243;28;20041;-82
2021/08/14 06:44:38;;;;;;;3.05;1.35;;;16.20;80.10;;;;;;4980480;28;20026;-81
2021/08/14 06:47:04;;;;;;;1.17;1.05;;;16.30;80.20;;;;;;4997461;28;20524;-82
2021/08/14 06:49:30;;;;;;;3.13;1.23;;;16.30;80.10;;;;;;4998974;28;20367;-81
2021/08/14 06:51:55;;;;;;;2.58;1.10;;;16.30;80.00;;;;;;4999793;28;20038;-81
2021/08/14 06:54:21;;;;;;;2.78;1.13;;;16.40;80.00;;;;;;5033944;28;20033;-82
2021/08/14 06:56:47;;;;;;;3.33;1.30;;;16.40;80.10;;;;;;4983482;28;20473;-82
2021/08/14 06:59:13;;;;;;;1.85;1.00;;;16.50;80.10;;;;;;5014980;28;20494;-82
2021/08/14 07:01:39;;;;;;;1.73;0.95;;;16.50;80.00;;;;;;5014621;28;20034;-81
2021/08/14 07:04:05;;;;;;;1.98;1.00;;;16.60;80.00;;;;;;5013927;28;20050;-81
2021/08/14 07:06:30;;;;;;;2.13;1.13;;;16.60;80.00;;;;;;4979890;28;20099;-81
2021/08/14 07:08:56;;;;;;;2.55;1.30;;;16.70;80.00;;;;;;4980403;28;20045;-81
2021/08/14 07:11:23;;;;;;;3.63;1.58;;;16.70;79.80;;;;;;4999340;28;20436;-82
2021/08/14 07:13:50;;;;;;;1.65;1.13;;;16.80;79.90;;;;;;5014018;28;20108;-81
2021/08/14 07:16:16;;;;;;;3.03;1.50;;;16.80;79.70;;;;;;4981270;28;20141;-82
2021/08/14 07:18:42;;;;;;;3.53;1.60;;;16.90;79.70;;;;;;5014313;28;20435;-81
2021/08/14 07:21:08;;;;;;;3.63;1.50;;;16.90;79.60;;;;;;4980437;28;20474;-82
2021/08/14 07:23:34;;;;;;;3.50;1.58;;;16.90;79.50;;;;;;4996405;28;20045;-81
2021/08/14 07:26:00;;;;;;;3.10;1.20;;;17.10;79.60;;;;;;4983159;28;20026;-81
2021/08/14 07:28:27;;;;;;;3.45;1.60;;;17.10;79.50;;;;;;5033445;28;20061;-81
2021/08/14 07:30:53;;;;;;;2.67;1.30;;;17.10;79.40;;;;;;5015745;28;20137;-81
2021/08/14 07:33:19;;;;;;;4.13;1.63;;;17.20;79.40;;;;;;4999464;28;20067;-81
2021/08/14 07:35:45;;;;;;;3.60;1.30;;;17.20;79.40;;;;;;5002851;28;20520;-82
2021/08/14 07:38:12;;;;;;;3.45;1.42;;;17.30;79.40;;;;;;4996059;28;20030;-81
2021/08/14 07:40:38;;;;;;;3.42;1.38;;;17.30;79.40;;;;;;5013369;28;20495;-81
2021/08/14 07:43:04;;;;;;;2.88;1.60;;;17.40;79.40;;;;;;4979680;28;20045;-82
2021/08/14 07:45:30;;;;;;;3.75;1.42;;;17.40;79.30;;;;;;4998613;28;20520;-81
2021/08/14 07:47:56;;;;;;;3.35;1.50;;;17.50;80.00;;;;;;4998786;28;20524;-81
2021/08/14 07:50:26;;;;;;;1.90;1.10;;;17.60;79.30;;;;;;5000348;28;20115;-80
2021/08/14 07:52:53;;;;;;;1.65;1.10;;;17.70;79.20;;;;;;4987698;28;20064;-81
2021/08/14 07:55:20;;;;;;;2.08;1.02;;;17.80;79.70;;;;;;4986872;28;20049;-81
2021/08/14 07:57:45;;;;;;;2.67;1.23;;;17.90;79.00;;;;;;4987888;28;20034;-80
2021/08/14 08:00:14;;;;;;;2.55;1.00;;;18.10;79.50;;;;;;4988841;28;20057;-79
2021/08/14 08:02:40;;;;;;;1.67;1.10;;;18.20;78.60;;;;;;5016433;28;20046;-81
2021/08/14 08:05:08;;;;;;;2.42;1.25;;;18.30;78.30;;;;;;4995671;28;20125;-80
2021/08/14 08:07:34;;;;;;;2.35;1.10;;;18.50;78.20;;;;;;5013004;28;20038;-81
2021/08/14 08:10:02;;;;;;;2.85;1.10;;;18.50;77.90;;;;;;4998241;28;20094;-81
2021/08/14 08:12:28;;;;;;;2.15;1.00;;;18.70;78.00;;;;;;4997036;28;20037;-81
2021/08/14 08:14:54;;;;;;;3.42;1.10;;;18.80;77.80;;;;;;4995643;28;20033;-81
2021/08/14 08:17:19;;;;;;;2.53;1.10;;;19.10;77.80;;;;;;5014734;28;20069;-81
2021/08/14 08:19:45;;;;;;;2.72;1.30;;;19.10;77.40;;;;;;5031622;28;20481;-81
2021/08/14 08:22:11;;;;;;;2.25;1.20;;;19.40;77.20;;;;;;5033286;28;20065;-81
2021/08/14 08:24:37;;;;;;;3.15;1.50;;;19.60;77.10;;;;;;5032756;28;20030;-82
2021/08/14 08:27:03;;;;;;;3.63;1.27;;;19.70;76.90;;;;;;4998870;28;20481;-81
2021/08/14 08:29:28;;;;;;;3.65;1.42;;;19.80;76.90;;;;;;4966341;28;20558;-81
2021/08/14 08:31:54;;;;;;;3.97;1.45;;;19.90;76.80;;;;;;5012091;28;20118;-81
2021/08/14 08:34:23;;;;;;;2.17;1.13;;;20.10;76.70;;;;;;4979173;28;20041;-80
2021/08/14 08:36:50;;;;;;;3.20;1.52;;;20.10;76.70;;;;;;5013032;28;20038;-81
2021/08/14 08:39:16;;;;;;;2.58;1.50;;;20.20;76.70;;;;;;4978917;28;20037;-82
2021/08/14 08:41:41;;;;;;;1.98;1.00;;;20.30;77.10;;;;;;4978960;28;20029;-83
2021/08/14 08:44:07;;;;;;;2.47;1.17;;;20.40;76.60;;;;;;4997225;28;20477;-81
2021/08/14 08:46:35;;;;;;;1.92;1.27;;;20.50;76.40;;;;;;5014681;28;20049;-82
2021/08/14 08:49:02;;;;;;;1.83;1.10;;;20.50;76.40;;;;;;5014972;28;20049;-81
2021/08/14 08:51:30;;;;;;;4.18;1.48;;;20.70;76.40;;;;;;4992806;28;20038;-82
2021/08/14 08:53:56;;;;;;;4.88;1.63;;;20.80;76.30;;;;;;5030417;28;20045;-82
2021/08/14 08:56:22;;;;;;;4.65;1.70;;;20.80;76.30;;;;;;4998275;28;20041;-81
2021/08/14 08:58:48;;;;;;;5.07;1.80;;;20.80;76.20;;;;;;4996166;28;20060;-80
2021/08/14 09:01:14;;;;;;;3.38;1.70;;;20.80;76.40;;;;;;4994738;28;20073;-82
2021/08/14 09:03:40;;;;;;;6.03;2.00;;;20.80;76.50;;;;;;4993402;28;20151;-81
2021/08/14 09:06:06;;;;;;;3.75;1.23;;;20.80;76.70;;;;;;4994922;28;20041;-81
2021/08/14 09:08:32;;;;;;;2.85;1.48;;;20.80;77.00;;;;;;5012809;28;20026;-80
2021/08/14 09:11:12;;;;;;;3.30;1.85;;;21.00;76.80;;;;;;4978320;28;20113;-80
2021/08/14 09:13:39;;;;;;;3.22;1.73;;;21.10;76.60;;;;;;5012743;28;20029;-81
2021/08/14 09:16:22;;;;;;;2.78;1.60;;;21.20;76.40;;;;;;4962485;28;20464;-80
2021/08/14 09:18:54;;;;;;;4.30;2.08;;;21.30;76.50;;;;;;4962566;28;20394;-80
2021/08/14 09:21:33;;;;;;;2.97;1.92;;;21.30;76.40;;;;;;5011995;28;20069;-80
2021/08/14 09:24:04;;;;;;;4.22;2.20;;;21.30;76.50;;;;;;4994255;28;20521;-80
2021/08/14 09:26:58;;;;;;;4.32;2.42;;;21.30;76.50;;;;;;4995131;28;20382;-80
2021/08/14 09:29:40;;;;;;;2.80;1.90;;;21.40;76.50;;;;;;4978106;28;20057;-79
2021/08/14 09:32:09;;;;;;;4.95;2.17;;;21.50;76.60;;;;;;4997772;28;20117;-80
2021/08/14 09:34:40;;;;;;;3.22;2.20;;;21.50;76.60;;;;;;4965763;28;20370;-80
2021/08/14 09:37:09;;;;;;;3.70;2.20;;;21.50;76.60;;;;;;4981317;28;20393;-79
2021/08/14 09:39:51;;;;;;;3.70;2.13;;;21.50;76.70;;;;;;4981224;28;20103;-80
2021/08/14 09:42:17;;;;;;;6.75;2.90;;;21.50;76.90;;;;;;4981674;28;20567;-80
2021/08/14 09:44:43;;;;;;;7.85;3.47;;;21.40;77.10;;;;;;5015069;28;20042;-79
2021/08/14 09:47:30;;;;;;;5.80;2.88;;;21.30;77.10;;;;;;4997484;28;20054;-79
2021/08/14 09:49:57;;;;;;;4.70;2.50;;;21.30;77.10;;;;;;5034765;28;20041;-80
2021/08/14 09:52:25;;;;;;;5.20;2.80;;;21.30;77.20;;;;;;5034843;28;20562;-79
2021/08/14 09:54:53;;;;;;;5.13;2.53;;;21.30;77.20;;;;;;4986727;28;20050;-79
2021/08/14 09:57:19;;;;;;;9.70;3.20;;;21.30;77.40;;;;;;4997238;28;20433;-80
2021/08/14 09:59:47;;;;;;;4.40;2.58;;;21.20;77.40;;;;;;4997391;28;20045;-81
2021/08/14 10:02:34;;;;;;;5.43;2.47;;;21.20;77.60;;;;;;4997593;28;20403;-80
2021/08/14 10:05:00;;;;;;;4.38;2.40;;;21.20;77.50;;;;;;4983584;28;20130;-80
2021/08/14 10:07:27;;;;;;;5.85;2.85;;;21.30;77.30;;;;;;5014826;28;20049;-80
2021/08/14 10:09:53;;;;;;;7.97;3.40;;;21.30;77.20;;;;;;5014981;28;20026;-80
2021/08/14 10:12:20;;;;;;;5.53;3.10;;;21.30;77.60;;;;;;5034589;28;20042;-80
2021/08/14 10:14:48;;;;;;;5.72;2.85;;;21.30;76.80;;;;;;4964917;28;20061;-80
2021/08/14 10:17:16;;;;;;;5.15;2.67;;;21.30;76.60;;;;;;4996991;28;20045;-80
2021/08/14 10:19:43;;;;;;;5.07;2.50;;;21.20;76.70;;;;;;4997507;28;20054;-82
2021/08/14 10:22:10;;;;;;;4.57;2.20;;;21.20;76.80;;;;;;4996560;28;20394;-80
2021/08/14 10:24:40;;;;;;;4.05;1.92;;;21.20;76.80;;;;;;4997329;28;20451;-80
2021/08/14 10:27:09;;;;;;;3.67;1.98;;;21.10;76.80;;;;;;5014489;28;20053;-80
2021/08/14 10:29:45;;;;;;;5.10;2.28;;;21.30;76.70;;;;;;5012982;28;20441;-80
2021/08/14 10:32:10;;;;;;;5.03;2.03;;;21.30;76.50;;;;;;4996759;28;20050;-80
2021/08/14 10:34:37;;;;;;;4.40;2.38;;;21.30;76.50;;;;;;4997284;28;20022;-80
2021/08/14 10:37:38;;;;;;;4.25;2.35;;;21.30;76.50;;;;;;5014361;28;20501;-80
2021/08/14 10:40:06;;;;;;;4.20;2.10;;;21.30;76.40;;;;;;5014382;28;20512;-80
2021/08/14 10:42:57;;;;;;;3.15;2.08;;;21.30;76.40;;;;;;4979366;28;20049;-80
2021/08/14 10:45:34;;;;;;;4.28;2.22;;;21.20;76.40;;;;;;4995735;28;20125;-80
2021/08/14 10:48:04;;;;;;;2.67;1.73;;;21.20;76.40;;;;;;5016377;28;20069;-80
2021/08/14 10:50:53;;;;;;;3.60;1.80;;;21.20;76.30;;;;;;4999616;28;20045;-82
2021/08/14 10:53:22;;;;;;;5.05;2.20;;;21.20;76.40;;;;;;4983963;28;20050;-81
2021/08/14 10:55:52;;;;;;;5.63;2.45;;;21.20;76.40;;;;;;5014704;28;20030;-82
2021/08/14 10:58:26;;;;;;;3.07;1.90;;;21.20;76.20;;;;;;5014102;28;20038;-79
2021/08/14 11:01:13;;;;;;;4.53;2.10;;;21.30;76.20;;;;;;4996657;28;20041;-80
2021/08/14 11:03:39;;;;;;;3.50;2.20;;;21.20;76.10;;;;;;4996105;28;20405;-82
2021/08/14 11:06:32;;;;;;;4.13;2.45;;;21.20;76.30;;;;;;4996474;28;20112;-81
2021/08/14 11:09:30;;;;;;;4.95;2.42;;;21.20;76.30;;;;;;5032567;28;20031;-82
2021/08/14 11:11:59;;;;;;;4.30;2.20;;;21.30;76.20;;;;;;4998025;28;20042;-82
2021/08/14 11:14:43;;;;;;;4.28;2.38;;;21.30;76.00;;;;;;5016660;28;20034;-81
2021/08/14 11:17:11;;;;;;;4.15;2.22;;;21.30;76.10;;;;;;5015661;28;20066;-79
2021/08/14 11:19:58;;;;;;;3.70;2.00;;;21.30;76.20;;;;;;5015517;28;20063;-80
2021/08/14 11:22:29;;;;;;;2.55;1.70;;;21.20;76.10;;;;;;4981801;28;20046;-80
2021/08/14 11:24:59;;;;;;;2.95;1.80;;;21.20;76.20;;;;;;5015952;28;20044;-79
2021/08/14 11:27:28;;;;;;;3.38;1.90;;;21.20;76.30;;;;;;5033368;28;20511;-79
2021/08/14 11:29:58;;;;;;;3.97;2.05;;;21.30;76.20;;;;;;5009774;28;20037;-80
2021/08/14 11:32:24;;;;;;;4.63;2.03;;;21.30;76.10;;;;;;5015429;28;20038;-80
2021/08/14 11:34:51;;;;;;;5.50;2.50;;;21.40;76.00;;;;;;4995725;28;20080;-82
2021/08/14 11:37:17;;;;;;;3.50;1.95;;;21.50;75.90;;;;;;4996275;28;20052;-80
2021/08/14 11:39:43;;;;;;;4.57;2.03;;;21.50;75.70;;;;;;5010389;28;20057;-79
2021/08/14 11:42:11;;;;;;;3.78;1.90;;;21.50;75.60;;;;;;5005074;28;20038;-80
2021/08/14 11:44:37;;;;;;;4.68;2.10;;;21.50;75.50;;;;;;5033061;28;20489;-80
2021/08/14 11:47:05;;;;;;;5.43;2.20;;;21.50;75.60;;;;;;5033037;28;20021;-80
2021/08/14 11:49:49;;;;;;;4.40;2.20;;;21.40;75.70;;;;;;5032997;28;20443;-81
2021/08/14 11:52:21;;;;;;;4.45;2.08;;;21.30;76.00;;;;;;4983964;28;20088;-80
2021/08/14 11:54:46;;;;;;;4.00;2.00;;;21.20;76.40;;;;;;4995855;28;20038;-81
2021/08/14 11:57:12;;;;;;;2.70;1.60;;;21.30;76.30;;;;;;4995825;28;20504;-80
2021/08/14 11:59:39;;;;;;;3.55;2.30;;;21.40;76.10;;;;;;4995574;28;20399;-82
2021/08/14 12:02:05;;;;;;;3.78;2.20;;;21.50;75.70;;;;;;4979442;28;20502;-80
2021/08/14 12:04:31;;;;;;;3.45;1.85;;;21.50;75.80;;;;;;5011389;28;20403;-80
2021/08/14 12:06:58;;;;;;;5.25;2.40;;;21.50;75.90;;;;;;4979169;28;20034;-80
2021/08/14 12:09:25;;;;;;;3.78;1.95;;;21.50;75.90;;;;;;4995538;28;20524;-80
2021/08/14 12:11:53;;;;;;;3.85;2.08;;;21.60;75.80;;;;;;5013433;28;20034;-79
2021/08/14 12:14:22;;;;;;;2.97;1.70;;;21.60;75.80;;;;;;4979076;28;20498;-79
2021/08/14 12:16:57;;;;;;;4.45;2.08;;;21.70;75.50;;;;;;4995214;28;20041;-81
2021/08/14 12:19:23;;;;;;;4.43;2.00;;;21.80;75.10;;;;;;4999858;28;20412;-80
2021/08/14 12:22:04;;;;;;;3.63;2.15;;;21.90;75.10;;;;;;5032513;28;20033;-80
2021/08/14 12:24:30;;;;;;;3.38;2.10;;;21.90;75.00;;;;;;5032994;28;20069;-80
2021/08/14 12:26:56;;;;;;;4.03;2.05;;;22.00;74.90;;;;;;5032265;28;20080;-79
2021/08/14 12:29:23;;;;;;;3.65;2.13;;;22.20;74.70;;;;;;5032726;28;20043;-79
2021/08/14 12:31:52;;;;;;;2.75;1.75;;;22.20;74.40;;;;;;5032669;28;20091;-79
2021/08/14 12:34:34;;;;;;;5.18;2.47;;;22.30;74.20;;;;;;5003346;28;20100;-80
2021/08/14 12:37:06;;;;;;;2.63;1.63;;;22.40;74.10;;;;;;5012868;28;20046;-80
2021/08/14 12:39:55;;;;;;;2.83;1.60;;;22.40;73.90;;;;;;5013196;28;20421;-79
2021/08/14 12:42:26;;;;;;;4.22;2.30;;;22.60;73.90;;;;;;4993844;28;20394;-81
2021/08/14 12:44:52;;;;;;;3.05;1.85;;;22.60;73.50;;;;;;4994930;28;20125;-80
2021/08/14 12:47:34;;;;;;;3.90;2.05;;;22.70;74.10;;;;;;5012587;28;20058;-81
2021/08/14 12:50:25;;;;;;;3.13;1.70;;;22.80;73.40;;;;;;4978652;28;20034;-79
2021/08/14 12:52:55;;;;;;;2.45;1.63;;;22.80;73.30;;;;;;5010279;28;20092;-81